sensor_id;sensor_type;location;lat;lon;timestamp;pressure;altitude;pressure_sealevel;temperature;humidity
6464;BME280;3265;42.694;23.282;2023-04-19T00:00:18;94235.63;;;11.28;99.34
6464;BME280;3265;42.694;23.282;2023-04-19T00:02:45;94231.78;;;11.30;99.44
6464;BME280;3265;42.694;23.282;2023-04-19T00:05:13;94225.44;;;11.26;98.75
6464;BME280;3265;42.694;23.282;2023-04-19T00:07:40;94232.19;;;11.39;98.51
6464;BME280;3265;42.694;23.282;2023-04-19T00:10:08;94226.41;;;11.37;98.63
6464;BME280;3265;42.694;23.282;2023-04-19T00:12:36;94229.81;;;11.37;98.68
6464;BME280;3265;42.694;23.282;2023-04-19T00:15:04;94226.75;;;11.40;97.63
6464;BME280;3265;42.694;23.282;2023-04-19T00:17:30;94226.09;;;11.33;97.98
6464;BME280;3265;42.694;23.282;2023-04-19T00:19:57;94216.53;;;11.22;98.13
6464;BME280;3265;42.694;23.282;2023-04-19T00:22:24;94220.53;;;11.13;98.90
6464;BME280;3265;42.694;23.282;2023-04-19T00:24:51;94215.50;;;10.95;99.50
6464;BME280;3265;42.694;23.282;2023-04-19T00:27:19;94216.28;;;10.96;100.00
6464;BME280;3265;42.694;23.282;2023-04-19T00:29:47;94215.25;;;10.97;100.00
6464;BME280;3265;42.694;23.282;2023-04-19T00:32:14;94203.88;;;10.86;100.00
6464;BME280;3265;42.694;23.282;2023-04-19T00:34:41;94203.09;;;10.74;100.00
6464;BME280;3265;42.694;23.282;2023-04-19T00:37:08;94211.38;;;10.71;100.00
6464;BME280;3265;42.694;23.282;2023-04-19T00:39:35;94210.63;;;10.59;100.00
6464;BME280;3265;42.694;23.282;2023-04-19T00:42:02;94214.22;;;10.58;100.00
6464;BME280;3265;42.694;23.282;2023-04-19T00:44:29;94217.63;;;10.58;100.00
6464;BME280;3265;42.694;23.282;2023-04-19T00:46:59;94209.59;;;10.60;100.00
6464;BME280;3265;42.694;23.282;2023-04-19T00:49:26;94213.53;;;10.62;100.00
6464;BME280;3265;42.694;23.282;2023-04-19T00:51:53;94205.75;;;10.39;100.00
6464;BME280;3265;42.694;23.282;2023-04-19T00:54:20;94167.06;;;10.14;100.00
6464;BME280;3265;42.694;23.282;2023-04-19T00:56:47;94202.59;;;10.37;100.00
6464;BME280;3265;42.694;23.282;2023-04-19T00:59:15;94203.75;;;10.30;100.00
6464;BME280;3265;42.694;23.282;2023-04-19T01:01:42;94197.88;;;10.22;100.00
6464;BME280;3265;42.694;23.282;2023-04-19T01:04:10;94208.06;;;10.24;100.00
6464;BME280;3265;42.694;23.282;2023-04-19T01:06:39;94191.44;;;10.13;100.00
6464;BME280;3265;42.694;23.282;2023-04-19T01:09:07;94202.50;;;10.20;100.00
6464;BME280;3265;42.694;23.282;2023-04-19T01:11:34;94191.66;;;10.12;100.00
6464;BME280;3265;42.694;23.282;2023-04-19T01:14:01;94193.44;;;10.00;100.00
6464;BME280;3265;42.694;23.282;2023-04-19T01:16:28;94188.81;;;9.90;100.00
6464;BME280;3265;42.694;23.282;2023-04-19T01:18:54;94172.22;;;9.68;100.00
6464;BME280;3265;42.694;23.282;2023-04-19T01:21:23;94160.66;;;9.52;100.00
6464;BME280;3265;42.694;23.282;2023-04-19T01:23:51;94179.06;;;9.51;100.00
6464;BME280;3265;42.694;23.282;2023-04-19T01:26:19;94187.78;;;9.68;100.00
6464;BME280;3265;42.694;23.282;2023-04-19T01:28:46;94185.72;;;9.58;100.00
6464;BME280;3265;42.694;23.282;2023-04-19T01:31:13;94180.72;;;9.34;100.00
6464;BME280;3265;42.694;23.282;2023-04-19T01:33:40;94180.72;;;9.34;100.00
6464;BME280;3265;42.694;23.282;2023-04-19T01:36:07;94186.03;;;9.39;100.00
6464;BME280;3265;42.694;23.282;2023-04-19T01:38:34;94188.09;;;9.48;100.00
6464;BME280;3265;42.694;23.282;2023-04-19T01:41:02;94174.56;;;9.46;100.00
6464;BME280;3265;42.694;23.282;2023-04-19T01:43:29;94181.69;;;9.62;100.00
6464;BME280;3265;42.694;23.282;2023-04-19T01:45:56;94167.53;;;9.47;100.00
6464;BME280;3265;42.694;23.282;2023-04-19T01:48:22;94171.38;;;9.44;100.00
6464;BME280;3265;42.694;23.282;2023-04-19T01:50:49;94172.16;;;9.33;100.00
6464;BME280;3265;42.694;23.282;2023-04-19T01:53:16;94183.78;;;9.42;100.00
6464;BME280;3265;42.694;23.282;2023-04-19T01:55:43;94184.00;;;9.41;100.00
6464;BME280;3265;42.694;23.282;2023-04-19T01:58:11;94178.34;;;9.44;100.00
6464;BME280;3265;42.694;23.282;2023-04-19T02:00:38;94186.75;;;9.57;100.00
6464;BME280;3265;42.694;23.282;2023-04-19T02:03:04;94175.03;;;9.55;100.00
6464;BME280;3265;42.694;23.282;2023-04-19T02:05:31;94177.34;;;9.45;100.00
6464;BME280;3265;42.694;23.282;2023-04-19T02:07:58;94181.66;;;9.51;100.00
6464;BME280;3265;42.694;23.282;2023-04-19T02:10:25;94175.03;;;9.55;100.00
6464;BME280;3265;42.694;23.282;2023-04-19T02:12:52;94176.81;;;9.54;100.00
6464;BME280;3265;42.694;23.282;2023-04-19T02:15:21;94133.28;;;9.03;100.00
6464;BME280;3265;42.694;23.282;2023-04-19T02:17:47;94187.78;;;9.27;100.00
6464;BME280;3265;42.694;23.282;2023-04-19T02:20:15;94184.00;;;9.41;100.00
6464;BME280;3265;42.694;23.282;2023-04-19T02:22:41;94182.31;;;9.35;100.00
6464;BME280;3265;42.694;23.282;2023-04-19T02:25:08;94168.53;;;9.23;100.00
6464;BME280;3265;42.694;23.282;2023-04-19T02:27:35;94177.38;;;9.15;100.00
6464;BME280;3265;42.694;23.282;2023-04-19T02:30:03;94178.41;;;9.14;100.00
6464;BME280;3265;42.694;23.282;2023-04-19T02:32:31;94135.19;;;8.96;100.00
6464;BME280;3265;42.694;23.282;2023-04-19T02:34:58;94177.09;;;9.23;100.00
6464;BME280;3265;42.694;23.282;2023-04-19T02:37:25;94170.44;;;9.27;100.00
6464;BME280;3265;42.694;23.282;2023-04-19T02:39:52;94164.25;;;9.28;100.00
6464;BME280;3265;42.694;23.282;2023-04-19T02:42:19;94168.69;;;9.09;100.00
6464;BME280;3265;42.694;23.282;2023-04-19T02:44:45;94169.78;;;9.02;100.00
6464;BME280;3265;42.694;23.282;2023-04-19T02:47:12;94168.66;;;8.98;100.00
6464;BME280;3265;42.694;23.282;2023-04-19T02:49:41;94170.66;;;8.96;100.00
6464;BME280;3265;42.694;23.282;2023-04-19T02:52:07;94171.53;;;8.90;100.00
6464;BME280;3265;42.694;23.282;2023-04-19T02:54:34;94161.25;;;8.83;100.00
6464;BME280;3265;42.694;23.282;2023-04-19T02:57:01;94163.72;;;8.78;100.00
6464;BME280;3265;42.694;23.282;2023-04-19T02:59:28;94166.81;;;8.87;100.00
6464;BME280;3265;42.694;23.282;2023-04-19T03:01:54;94167.66;;;8.81;100.00
6464;BME280;3265;42.694;23.282;2023-04-19T03:04:21;94166.19;;;8.73;100.00
6464;BME280;3265;42.694;23.282;2023-04-19T03:06:50;94163.53;;;8.80;100.00
6464;BME280;3265;42.694;23.282;2023-04-19T03:09:17;94159.78;;;8.76;100.00
6464;BME280;3265;42.694;23.282;2023-04-19T03:11:44;94158.91;;;8.82;100.00
6464;BME280;3265;42.694;23.282;2023-04-19T03:14:11;94165.00;;;8.87;100.00
6464;BME280;3265;42.694;23.282;2023-04-19T03:16:38;94168.31;;;8.94;100.00
6464;BME280;3265;42.694;23.282;2023-04-19T03:19:05;94162.78;;;8.91;100.00
6464;BME280;3265;42.694;23.282;2023-04-19T03:21:32;94166.84;;;8.98;100.00
6464;BME280;3265;42.694;23.282;2023-04-19T03:24:00;94166.69;;;8.82;100.00
6464;BME280;3265;42.694;23.282;2023-04-19T03:26:28;94160.25;;;8.84;100.00
6464;BME280;3265;42.694;23.282;2023-04-19T03:28:55;94160.63;;;8.88;100.00
6464;BME280;3265;42.694;23.282;2023-04-19T03:31:21;94165.00;;;8.87;100.00
6464;BME280;3265;42.694;23.282;2023-04-19T03:33:48;94169.06;;;8.65;100.00
6464;BME280;3265;42.694;23.282;2023-04-19T03:36:15;94165.19;;;8.56;100.00
6464;BME280;3265;42.694;23.282;2023-04-19T03:38:42;94144.91;;;8.35;100.00
6464;BME280;3265;42.694;23.282;2023-04-19T03:41:18;94161.56;;;8.45;100.00
6464;BME280;3265;42.694;23.282;2023-04-19T03:43:45;94172.84;;;8.51;100.00
6464;BME280;3265;42.694;23.282;2023-04-19T03:46:12;94163.53;;;8.62;100.00
6464;BME280;3265;42.694;23.282;2023-04-19T03:48:38;94176.41;;;8.68;100.00
6464;BME280;3265;42.694;23.282;2023-04-19T03:51:05;94163.22;;;8.70;100.00
6464;BME280;3265;42.694;23.282;2023-04-19T03:53:32;94167.97;;;8.73;100.00
6464;BME280;3265;42.694;23.282;2023-04-19T03:55:59;94161.75;;;8.62;100.00
6464;BME280;3265;42.694;23.282;2023-04-19T03:58:27;94169.66;;;8.67;100.00
6464;BME280;3265;42.694;23.282;2023-04-19T04:00:54;94172.41;;;8.54;100.00
6464;BME280;3265;42.694;23.282;2023-04-19T04:03:21;94167.28;;;8.47;100.00
6464;BME280;3265;42.694;23.282;2023-04-19T04:05:47;94166.50;;;8.47;100.00
6464;BME280;3265;42.694;23.282;2023-04-19T04:08:14;94163.69;;;8.48;100.00
6464;BME280;3265;42.694;23.282;2023-04-19T04:10:41;94167.72;;;8.44;100.00
6464;BME280;3265;42.694;23.282;2023-04-19T04:13:08;94171.00;;;8.51;100.00
6464;BME280;3265;42.694;23.282;2023-04-19T04:15:37;94134.03;;;8.26;100.00
6464;BME280;3265;42.694;23.282;2023-04-19T04:18:04;94170.81;;;8.53;100.00
6464;BME280;3265;42.694;23.282;2023-04-19T04:20:31;94172.41;;;8.54;100.00
6464;BME280;3265;42.694;23.282;2023-04-19T04:22:58;94165.00;;;8.39;100.00
6464;BME280;3265;42.694;23.282;2023-04-19T04:25:25;94142.75;;;8.32;100.00
6464;BME280;3265;42.694;23.282;2023-04-19T04:27:53;94148.06;;;8.37;100.00
6464;BME280;3265;42.694;23.282;2023-04-19T04:30:20;94150.78;;;8.24;100.00
6464;BME280;3265;42.694;23.282;2023-04-19T04:32:49;94135.31;;;8.17;100.00
6464;BME280;3265;42.694;23.282;2023-04-19T04:35:16;94158.28;;;8.32;100.00
6464;BME280;3265;42.694;23.282;2023-04-19T04:37:43;94180.97;;;8.36;100.00
6464;BME280;3265;42.694;23.282;2023-04-19T04:40:11;94187.50;;;8.39;100.00
6464;BME280;3265;42.694;23.282;2023-04-19T04:42:40;94186.72;;;8.57;100.00
6464;BME280;3265;42.694;23.282;2023-04-19T04:45:08;94178.50;;;8.41;100.00
6464;BME280;3265;42.694;23.282;2023-04-19T04:47:37;94196.56;;;8.48;100.00
6464;BME280;3265;42.694;23.282;2023-04-19T04:50:07;94196.41;;;8.43;100.00
6464;BME280;3265;42.694;23.282;2023-04-19T04:52:33;94186.91;;;8.37;100.00
6464;BME280;3265;42.694;23.282;2023-04-19T04:55:00;94171.09;;;8.45;100.00
6464;BME280;3265;42.694;23.282;2023-04-19T04:57:27;94189.50;;;8.55;100.00
6464;BME280;3265;42.694;23.282;2023-04-19T04:59:54;94191.91;;;8.57;100.00
6464;BME280;3265;42.694;23.282;2023-04-19T05:02:21;94183.56;;;8.36;100.00
6464;BME280;3265;42.694;23.282;2023-04-19T05:04:48;94191.38;;;8.30;100.00
6464;BME280;3265;42.694;23.282;2023-04-19T05:07:16;94186.78;;;8.32;100.00
6464;BME280;3265;42.694;23.282;2023-04-19T05:09:43;94184.41;;;8.30;100.00
6464;BME280;3265;42.694;23.282;2023-04-19T05:12:10;94195.69;;;8.36;100.00
6464;BME280;3265;42.694;23.282;2023-04-19T05:14:36;94199.59;;;8.45;100.00
6464;BME280;3265;42.694;23.282;2023-04-19T05:17:03;94197.50;;;8.53;100.00
6464;BME280;3265;42.694;23.282;2023-04-19T05:19:30;94195.53;;;8.67;100.00
6464;BME280;3265;42.694;23.282;2023-04-19T05:21:57;94197.34;;;8.67;100.00
6464;BME280;3265;42.694;23.282;2023-04-19T05:24:25;94195.63;;;8.61;100.00
6464;BME280;3265;42.694;23.282;2023-04-19T05:26:52;94180.53;;;8.39;100.00
6464;BME280;3265;42.694;23.282;2023-04-19T05:29:19;94187.88;;;8.42;100.00
6464;BME280;3265;42.694;23.282;2023-04-19T05:31:46;94206.00;;;8.42;100.00
6464;BME280;3265;42.694;23.282;2023-04-19T05:34:13;94175.94;;;8.17;100.00
6464;BME280;3265;42.694;23.282;2023-04-19T05:36:39;94204.59;;;8.40;100.00
6464;BME280;3265;42.694;23.282;2023-04-19T05:39:06;94202.31;;;8.50;100.00
6464;BME280;3265;42.694;23.282;2023-04-19T05:41:35;94202.03;;;8.58;100.00
6464;BME280;3265;42.694;23.282;2023-04-19T05:44:02;94202.88;;;8.52;100.00
6464;BME280;3265;42.694;23.282;2023-04-19T05:46:29;94204.03;;;8.56;100.00
6464;BME280;3265;42.694;23.282;2023-04-19T05:48:55;94205.78;;;8.62;100.00
6464;BME280;3265;42.694;23.282;2023-04-19T05:51:22;94200.44;;;8.75;100.00
6464;BME280;3265;42.694;23.282;2023-04-19T05:53:49;94208.81;;;8.89;100.00
6464;BME280;3265;42.694;23.282;2023-04-19T05:56:16;94202.94;;;8.82;100.00
6464;BME280;3265;42.694;23.282;2023-04-19T05:58:44;94205.53;;;8.82;100.00
6464;BME280;3265;42.694;23.282;2023-04-19T06:01:11;94196.59;;;8.96;100.00
6464;BME280;3265;42.694;23.282;2023-04-19T06:03:38;94203.13;;;8.98;100.00
6464;BME280;3265;42.694;23.282;2023-04-19T06:06:05;94206.63;;;9.04;100.00
6464;BME280;3265;42.694;23.282;2023-04-19T06:08:32;94201.63;;;9.09;100.00
6464;BME280;3265;42.694;23.282;2023-04-19T06:10:59;94206.47;;;9.17;100.00
6464;BME280;3265;42.694;23.282;2023-04-19T06:13:26;94211.88;;;9.16;100.00
6464;BME280;3265;42.694;23.282;2023-04-19T06:15:54;94165.06;;;8.99;100.00
6464;BME280;3265;42.694;23.282;2023-04-19T06:18:21;94205.75;;;9.40;100.00
6464;BME280;3265;42.694;23.282;2023-04-19T06:20:48;94208.59;;;9.50;100.00
6464;BME280;3265;42.694;23.282;2023-04-19T06:23:16;94191.09;;;9.34;100.00
6464;BME280;3265;42.694;23.282;2023-04-19T06:25:43;94215.88;;;9.30;100.00
6464;BME280;3265;42.694;23.282;2023-04-19T06:28:10;94215.44;;;9.33;100.00
6464;BME280;3265;42.694;23.282;2023-04-19T06:30:36;94208.34;;;9.40;100.00
6464;BME280;3265;42.694;23.282;2023-04-19T06:33:05;94209.63;;;9.49;100.00
6464;BME280;3265;42.694;23.282;2023-04-19T06:35:31;94212.69;;;9.57;100.00
6464;BME280;3265;42.694;23.282;2023-04-19T06:37:59;94198.47;;;9.60;100.00
6464;BME280;3265;42.694;23.282;2023-04-19T06:40:25;94220.81;;;9.73;100.00
6464;BME280;3265;42.694;23.282;2023-04-19T06:42:53;94203.78;;;9.65;100.00
6464;BME280;3265;42.694;23.282;2023-04-19T06:45:20;94220.28;;;9.82;100.00
6464;BME280;3265;42.694;23.282;2023-04-19T06:47:47;94220.06;;;9.84;100.00
6464;BME280;3265;42.694;23.282;2023-04-19T06:50:15;94226.19;;;9.89;100.00
6464;BME280;3265;42.694;23.282;2023-04-19T06:52:42;94215.44;;;9.74;100.00
6464;BME280;3265;42.694;23.282;2023-04-19T06:55:09;94224.22;;;9.73;100.00
6464;BME280;3265;42.694;23.282;2023-04-19T06:57:36;94224.91;;;9.80;100.00
6464;BME280;3265;42.694;23.282;2023-04-19T07:00:03;94220.06;;;9.84;100.00
6464;BME280;3265;42.694;23.282;2023-04-19T07:02:31;94230.56;;;9.89;100.00
6464;BME280;3265;42.694;23.282;2023-04-19T07:04:58;94211.03;;;9.75;100.00
6464;BME280;3265;42.694;23.282;2023-04-19T07:07:26;94227.03;;;9.72;100.00
6464;BME280;3265;42.694;23.282;2023-04-19T07:09:53;94229.72;;;9.65;100.00
6464;BME280;3265;42.694;23.282;2023-04-19T07:12:20;94216.09;;;9.69;100.00
6464;BME280;3265;42.694;23.282;2023-04-19T07:14:47;94228.78;;;9.89;100.00
6464;BME280;3265;42.694;23.282;2023-04-19T07:17:13;94233.38;;;9.87;100.00
6464;BME280;3265;42.694;23.282;2023-04-19T07:19:46;94232.47;;;9.93;100.00
6464;BME280;3265;42.694;23.282;2023-04-19T07:22:13;94230.09;;;9.80;100.00
6464;BME280;3265;42.694;23.282;2023-04-19T07:24:42;94214.06;;;9.72;100.00
6464;BME280;3265;42.694;23.282;2023-04-19T07:27:09;94229.09;;;9.69;100.00
6464;BME280;3265;42.694;23.282;2023-04-19T07:29:36;94222.31;;;9.68;100.00
6464;BME280;3265;42.694;23.282;2023-04-19T07:32:05;94234.84;;;9.83;100.00
6464;BME280;3265;42.694;23.282;2023-04-19T07:34:32;94225.28;;;9.95;100.00
6464;BME280;3265;42.694;23.282;2023-04-19T07:36:58;94234.44;;;10.09;100.00
6464;BME280;3265;42.694;23.282;2023-04-19T07:39:25;94231.06;;;10.20;100.00
6464;BME280;3265;42.694;23.282;2023-04-19T07:41:54;94213.00;;;10.14;100.00
6464;BME280;3265;42.694;23.282;2023-04-19T07:44:21;94226.34;;;10.17;100.00
6464;BME280;3265;42.694;23.282;2023-04-19T07:46:48;94224.28;;;10.19;100.00
6464;BME280;3265;42.694;23.282;2023-04-19T07:49:15;94237.72;;;10.28;100.00
6464;BME280;3265;42.694;23.282;2023-04-19T07:51:42;94237.38;;;10.36;100.00
6464;BME280;3265;42.694;23.282;2023-04-19T07:54:09;94235.72;;;10.53;100.00
6464;BME280;3265;42.694;23.282;2023-04-19T07:56:36;94232.06;;;10.54;100.00
6464;BME280;3265;42.694;23.282;2023-04-19T07:59:04;94233.31;;;10.40;100.00
6464;BME280;3265;42.694;23.282;2023-04-19T08:01:31;94236.28;;;10.44;100.00
6464;BME280;3265;42.694;23.282;2023-04-19T08:03:57;94233.78;;;10.49;100.00
6464;BME280;3265;42.694;23.282;2023-04-19T08:06:24;94236.34;;;10.60;100.00
6464;BME280;3265;42.694;23.282;2023-04-19T08:08:52;94235.56;;;10.71;100.00
6464;BME280;3265;42.694;23.282;2023-04-19T08:11:18;94228.88;;;10.75;100.00
6464;BME280;3265;42.694;23.282;2023-04-19T08:13:46;94242.06;;;10.86;100.00
6464;BME280;3265;42.694;23.282;2023-04-19T08:16:14;94235.38;;;11.01;100.00
6464;BME280;3265;42.694;23.282;2023-04-19T08:18:41;94242.81;;;11.09;100.00
6464;BME280;3265;42.694;23.282;2023-04-19T08:21:10;94235.16;;;10.91;100.00
6464;BME280;3265;42.694;23.282;2023-04-19T08:23:37;94225.81;;;10.90;100.00
6464;BME280;3265;42.694;23.282;2023-04-19T08:26:04;94247.13;;;11.04;100.00
6464;BME280;3265;42.694;23.282;2023-04-19T08:28:31;94231.63;;;11.09;100.00
6464;BME280;3265;42.694;23.282;2023-04-19T08:30:58;94223.13;;;11.13;100.00
6464;BME280;3265;42.694;23.282;2023-04-19T08:33:27;94202.59;;;11.00;100.00
6464;BME280;3265;42.694;23.282;2023-04-19T08:35:54;94236.03;;;11.08;100.00
6464;BME280;3265;42.694;23.282;2023-04-19T08:38:21;94232.41;;;11.09;100.00
6464;BME280;3265;42.694;23.282;2023-04-19T08:40:51;94237.81;;;11.19;100.00
6464;BME280;3265;42.694;23.282;2023-04-19T08:43:19;94228.88;;;11.15;100.00
6464;BME280;3265;42.694;23.282;2023-04-19T08:45:47;94207.41;;;11.08;100.00
6464;BME280;3265;42.694;23.282;2023-04-19T08:48:15;94221.63;;;11.17;100.00
6464;BME280;3265;42.694;23.282;2023-04-19T08:50:44;94216.44;;;11.17;100.00
6464;BME280;3265;42.694;23.282;2023-04-19T08:53:11;94227.66;;;11.34;100.00
6464;BME280;3265;42.694;23.282;2023-04-19T08:55:40;94221.78;;;11.39;100.00
6464;BME280;3265;42.694;23.282;2023-04-19T08:58:07;94218.94;;;11.40;100.00
6464;BME280;3265;42.694;23.282;2023-04-19T09:00:37;94220.22;;;11.55;98.45
6464;BME280;3265;42.694;23.282;2023-04-19T09:03:05;94221.44;;;11.64;97.90
6464;BME280;3265;42.694;23.282;2023-04-19T09:05:33;94214.34;;;11.59;98.95
6464;BME280;3265;42.694;23.282;2023-04-19T09:08:20;94207.53;;;11.58;99.14
6464;BME280;3265;42.694;23.282;2023-04-19T09:10:51;94210.50;;;11.78;97.60
6464;BME280;3265;42.694;23.282;2023-04-19T09:13:22;94193.41;;;11.82;95.86
6464;BME280;3265;42.694;23.282;2023-04-19T09:15:51;94220.06;;;11.89;96.29
6464;BME280;3265;42.694;23.282;2023-04-19T09:18:19;94215.25;;;11.98;96.15
6464;BME280;3265;42.694;23.282;2023-04-19T09:20:46;94202.53;;;12.02;95.40
6464;BME280;3265;42.694;23.282;2023-04-19T09:23:17;94194.66;;;12.13;95.03
6464;BME280;3265;42.694;23.282;2023-04-19T09:25:51;94206.72;;;12.19;95.61
6464;BME280;3265;42.694;23.282;2023-04-19T09:28:19;94201.97;;;12.33;94.60
6464;BME280;3265;42.694;23.282;2023-04-19T09:30:46;94205.72;;;12.42;93.62
6464;BME280;3265;42.694;23.282;2023-04-19T09:33:13;94203.81;;;12.54;92.30
6464;BME280;3265;42.694;23.282;2023-04-19T09:35:45;94206.44;;;12.76;91.76
6464;BME280;3265;42.694;23.282;2023-04-19T09:38:15;94212.09;;;12.89;90.86
6464;BME280;3265;42.694;23.282;2023-04-19T09:40:43;94203.00;;;12.92;89.39
6464;BME280;3265;42.694;23.282;2023-04-19T09:43:12;94218.75;;;13.02;88.54
6464;BME280;3265;42.694;23.282;2023-04-19T09:45:39;94204.53;;;13.10;88.66
6464;BME280;3265;42.694;23.282;2023-04-19T09:48:10;94200.69;;;13.17;88.43
6464;BME280;3265;42.694;23.282;2023-04-19T09:50:51;94197.59;;;13.20;89.06
6464;BME280;3265;42.694;23.282;2023-04-19T09:53:20;94180.81;;;13.11;87.58
6464;BME280;3265;42.694;23.282;2023-04-19T09:55:47;94202.81;;;13.42;87.04
6464;BME280;3265;42.694;23.282;2023-04-19T09:58:15;94195.19;;;13.40;84.50
6464;BME280;3265;42.694;23.282;2023-04-19T10:00:47;94185.75;;;13.34;86.02
6464;BME280;3265;42.694;23.282;2023-04-19T10:03:19;94177.03;;;13.50;87.39
6464;BME280;3265;42.694;23.282;2023-04-19T10:05:50;94181.84;;;13.37;87.95
6464;BME280;3265;42.694;23.282;2023-04-19T10:08:18;94110.78;;;13.03;87.44
6464;BME280;3265;42.694;23.282;2023-04-19T10:10:45;94147.31;;;13.56;85.95
6464;BME280;3265;42.694;23.282;2023-04-19T10:13:18;94158.16;;;14.07;84.70
6464;BME280;3265;42.694;23.282;2023-04-19T10:15:48;94179.91;;;14.54;82.57
6464;BME280;3265;42.694;23.282;2023-04-19T10:18:15;94188.91;;;14.78;81.09
6464;BME280;3265;42.694;23.282;2023-04-19T10:20:46;94184.56;;;15.09;81.16
6464;BME280;3265;42.694;23.282;2023-04-19T10:23:26;94187.59;;;15.53;78.86
6464;BME280;3265;42.694;23.282;2023-04-19T10:25:56;94170.88;;;15.69;77.39
6464;BME280;3265;42.694;23.282;2023-04-19T10:28:24;94185.03;;;15.83;76.35
6464;BME280;3265;42.694;23.282;2023-04-19T10:30:54;94184.50;;;15.71;76.46
6464;BME280;3265;42.694;23.282;2023-04-19T10:33:24;94171.66;;;15.75;75.18
6464;BME280;3265;42.694;23.282;2023-04-19T10:35:55;94172.16;;;15.47;76.31
6464;BME280;3265;42.694;23.282;2023-04-19T10:38:35;94175.25;;;15.44;77.55
6464;BME280;3265;42.694;23.282;2023-04-19T10:41:04;94150.41;;;15.56;77.09
6464;BME280;3265;42.694;23.282;2023-04-19T10:43:37;94168.50;;;16.03;75.23
6464;BME280;3265;42.694;23.282;2023-04-19T10:46:06;94181.63;;;16.18;73.25
6464;BME280;3265;42.694;23.282;2023-04-19T10:48:38;94151.44;;;16.21;74.02
6464;BME280;3265;42.694;23.282;2023-04-19T10:51:12;94154.88;;;15.86;75.19
6464;BME280;3265;42.694;23.282;2023-04-19T10:53:47;94163.25;;;15.93;74.98
6464;BME280;3265;42.694;23.282;2023-04-19T10:56:17;94147.00;;;15.51;74.47
6464;BME280;3265;42.694;23.282;2023-04-19T10:59:13;94156.47;;;15.67;75.03
6464;BME280;3265;42.694;23.282;2023-04-19T11:01:48;94147.00;;;15.96;72.74
6464;BME280;3265;42.694;23.282;2023-04-19T11:04:16;94153.03;;;16.07;72.68
6464;BME280;3265;42.694;23.282;2023-04-19T11:07:00;94149.38;;;16.13;71.92
6464;BME280;3265;42.694;23.282;2023-04-19T11:09:30;94141.75;;;16.11;73.39
6464;BME280;3265;42.694;23.282;2023-04-19T11:12:01;94143.25;;;16.42;73.22
6464;BME280;3265;42.694;23.282;2023-04-19T11:14:52;94143.16;;;16.88;71.86
6464;BME280;3265;42.694;23.282;2023-04-19T11:17:23;94131.50;;;17.14;68.55
6464;BME280;3265;42.694;23.282;2023-04-19T11:19:53;94138.59;;;17.09;68.27
6464;BME280;3265;42.694;23.282;2023-04-19T11:22:24;94153.44;;;16.79;66.82
6464;BME280;3265;42.694;23.282;2023-04-19T11:24:52;94151.03;;;16.88;67.86
6464;BME280;3265;42.694;23.282;2023-04-19T11:27:20;94136.13;;;17.27;68.50
6464;BME280;3265;42.694;23.282;2023-04-19T11:29:47;94143.63;;;17.54;68.17
6464;BME280;3265;42.694;23.282;2023-04-19T11:32:14;94121.03;;;17.48;65.10
6464;BME280;3265;42.694;23.282;2023-04-19T11:34:40;94145.22;;;17.45;65.17
6464;BME280;3265;42.694;23.282;2023-04-19T11:37:09;94145.16;;;17.60;64.88
6464;BME280;3265;42.694;23.282;2023-04-19T11:39:44;94150.53;;;17.79;65.84
6464;BME280;3265;42.694;23.282;2023-04-19T11:42:16;94121.19;;;17.95;64.01
6464;BME280;3265;42.694;23.282;2023-04-19T11:44:49;94140.50;;;18.43;63.57
6464;BME280;3265;42.694;23.282;2023-04-19T11:47:17;94146.97;;;18.80;62.54
6464;BME280;3265;42.694;23.282;2023-04-19T11:49:44;94140.41;;;18.53;61.31
6464;BME280;3265;42.694;23.282;2023-04-19T11:52:11;94137.41;;;18.07;63.00
6464;BME280;3265;42.694;23.282;2023-04-19T11:54:45;94130.06;;;18.04;62.53
6464;BME280;3265;42.694;23.282;2023-04-19T11:57:12;94119.09;;;18.26;63.06
6464;BME280;3265;42.694;23.282;2023-04-19T12:00:04;94136.75;;;18.97;60.53
6464;BME280;3265;42.694;23.282;2023-04-19T12:02:37;94130.50;;;19.11;59.06
6464;BME280;3265;42.694;23.282;2023-04-19T12:05:09;94125.31;;;18.64;60.07
6464;BME280;3265;42.694;23.282;2023-04-19T12:07:37;94134.50;;;18.66;60.36
6464;BME280;3265;42.694;23.282;2023-04-19T12:10:08;94119.72;;;18.89;59.16
6464;BME280;3265;42.694;23.282;2023-04-19T12:12:36;94119.22;;;19.30;58.48
6464;BME280;3265;42.694;23.282;2023-04-19T12:15:06;94122.78;;;19.76;58.03
6464;BME280;3265;42.694;23.282;2023-04-19T12:17:33;94138.31;;;20.10;56.64
6464;BME280;3265;42.694;23.282;2023-04-19T12:20:00;94131.00;;;20.20;55.12
6464;BME280;3265;42.694;23.282;2023-04-19T12:22:27;94137.06;;;20.21;54.30
6464;BME280;3265;42.694;23.282;2023-04-19T12:24:54;94098.06;;;19.86;54.98
6464;BME280;3265;42.694;23.282;2023-04-19T12:27:21;94127.59;;;19.88;56.13
6464;BME280;3265;42.694;23.282;2023-04-19T12:29:49;94130.09;;;19.79;56.86
6464;BME280;3265;42.694;23.282;2023-04-19T12:32:18;94113.78;;;19.77;56.94
6464;BME280;3265;42.694;23.282;2023-04-19T12:34:45;94124.50;;;19.48;57.14
6464;BME280;3265;42.694;23.282;2023-04-19T12:37:11;94119.91;;;19.72;58.04
6464;BME280;3265;42.694;23.282;2023-04-19T12:39:38;94113.31;;;19.56;58.17
6464;BME280;3265;42.694;23.282;2023-04-19T12:42:05;94140.94;;;19.77;58.16
6464;BME280;3265;42.694;23.282;2023-04-19T12:44:32;94121.41;;;19.22;58.94
6464;BME280;3265;42.694;23.282;2023-04-19T12:46:59;94067.97;;;18.80;58.98
6464;BME280;3265;42.694;23.282;2023-04-19T12:49:31;94097.88;;;18.18;61.12
6464;BME280;3265;42.694;23.282;2023-04-19T12:52:04;94114.44;;;17.55;63.23
6464;BME280;3265;42.694;23.282;2023-04-19T12:54:37;94100.34;;;17.36;64.49
6464;BME280;3265;42.694;23.282;2023-04-19T12:57:03;94109.22;;;17.01;66.04
6464;BME280;3265;42.694;23.282;2023-04-19T12:59:31;94119.00;;;16.86;67.96
6464;BME280;3265;42.694;23.282;2023-04-19T13:01:58;94112.44;;;16.88;69.57
6464;BME280;3265;42.694;23.282;2023-04-19T13:04:29;94106.50;;;16.68;69.40
6464;BME280;3265;42.694;23.282;2023-04-19T13:07:08;94045.25;;;16.13;71.22
6464;BME280;3265;42.694;23.282;2023-04-19T13:09:38;94074.16;;;15.88;72.30
6464;BME280;3265;42.694;23.282;2023-04-19T13:12:20;94056.88;;;15.42;72.69
6464;BME280;3265;42.694;23.282;2023-04-19T13:14:50;94136.03;;;15.84;72.66